METAR Data
IDs: Format: Raw Decoded Include TAF

Data at: 1501 UTC 12 Dec 2018

PAWG 121413Z AUTO 14004KT 10SM UP SCT026 BKN033 OVC042 03/00 A2955 RMK AO2 UPB12 TSNO PNO $
PAWG 121356Z AUTO 11007KT 10SM BKN028 BKN033 OVC044 03/00 A2954 RMK AO2 UPB44E54 SLP004 T00280000 TSNO PNO $
PAWG 121256Z AUTO 16006KT 10SM FEW060 SCT110 03/M01 A2953 RMK AO2 SLP001 T00331006 TSNO PNO $
PAWG 121156Z AUTO 00000KT 10SM FEW037 SCT049 SCT055 03/00 A2953 RMK AO2 RAB33E45 SLP999 6//// 7//// T00280000 10044 20028 51030 TSNO PNO $
PAWG 120956Z AUTO 00000KT 10SM -RA FEW029 OVC041 04/00 A2948 RMK AO2 RAE07B41 SLP985 T00390000 TSNO PNO $
PAWG 120851Z AUTO VRB05G14KT 10SM -RA FEW013 BKN025 OVC030 04/01 A2943 RMK AO2 400610022 TSNO PNO $
PAWG 120814Z AUTO 17004KT 10SM -RA FEW014 BKN039 OVC060 03/01 A2940 RMK AO2 TSNO PNO $
PAWG 120803Z AUTO 23006G14KT 10SM -RA SCT014 BKN022 OVC055 03/01 A2939 RMK AO2 TSNO PNO $
PAWG 120756Z AUTO 23010KT 10SM -RA BKN030 OVC040 03/01 A2939 RMK AO2 RAB31 SLP953 T00330011 TSNO PNO $
PAWG 120656Z 17007KT 080V230 10SM BKN030 OVC040 04/01 A2933 RMK AO2 RAE51 SLP933 T00390011 PNO $
PAWG 120556Z 07009KT 050V120 10SM -RA BKN015 OVC020 03/02 A2929 RMK AO2 SLP919 6//// T00330022 10050 20022 53031 PNO $
PAWG 120456Z 11006KT 10SM -RA FEW015 BKN025 OVC030 03/02 A2926 RMK AO2 RAE11B32 SLP908 T00280017 PNO $
PAWG 120356Z 09004KT 9SM -RA BKN025 OVC030 03/02 A2922 RMK AO2 SLP896 T00330017 PNO $
PAWG 120256Z VRB03KT 7SM -RA BKN020 OVC030 03/02 A2920 RMK AO2 SLP888 P0000 6//// T00330022 53012
PAWG 120155Z 24004KT 7SM -RA BKN020 OVC030 03/02 A2918
PAWG 120056Z VRB05KT 7SM -RA BKN025 BKN030 OVC045 04/02 A2918 RMK AO2 RAB28 SLP880 T00440017 PNO $
PAWG 112356Z 08007KT 10SM FEW030 BKN035 OVC040 05/02 A2917 RMK AO2 SLP877 6//// T00500022 10061 20044 51016 PNO $
PAWG 112256Z 07008KT 10SM BKN040 BKN050 06/02 A2916 RMK AO2 RAE20 SLP873 T00560022 PNO $
PAWG 112156Z 16008KT 10SM -RA FEW010 BKN035 BKN050 06/02 A2914 RMK AO2 RAB04E28B55 SLP869 T00560022 PNO $
PAWG 111956Z 18009KT 150V210 10SM FEW010 BKN035 OVC050 06/03 A2909 RMK AO2 RAE14B30E55 SLP852 T00560028 PNO $
PAWG 111855Z 16006G14KT 10SM -RA FEW005 BKN035 OVC050 06/03 A2906
PAWG 111756Z 10007KT 10SM -RA FEW005 BKN025 OVC040 05/03 A2898 RMK AO2 SLP814 6//// T00500028 10050 20033 53026 PNO $
PAWG 111656Z VRB03KT 10SM -RA SCT010 BKN025 OVC040 04/03 A2894 RMK AO2 SLP801 T00440033 PNO $
PAWG 111556Z 00000KT 9SM RA SCT015 BKN030 OVC050 04/03 A2891 RMK AO2 SLP791 T00390028 PNO $
PAWG 111456Z 00000KT 7SM RA SCT015 BKN030 OVC050 04/03 A2890 RMK AO2 SLP788 6//// T00390028 55001 PNO $
PAWG 111256Z AUTO 23005KT 10SM RA OVC030 04/03 A2891 RMK AO2 SLP788 T00390028 TSNO PNO $
PAWG 111104Z AUTO 11013G19KT 9SM RA BKN029 BKN034 OVC044 06/02 A2895 RMK AO2 TSNO PNO $
PAWG 110956Z AUTO 12018KT 10SM -RA OVC055 06/03 A2898 RMK AO2 SLP813 T00560028 TSNO PNO $
PAWG 110856Z AUTO 10013G20KT 10SM -RA BKN040 OVC049 06/03 A2903 RMK AO2 SLP830 6//// T00560028 400560033 56046 TSNO PNO $
PAWG 110656Z 09018G25KT 7SM -RA OVC030 05/03 A2912 RMK AO2 PK WND 10027/0610 SLP861 T00500028 PNO $
PAWG 110556Z 09017G25KT 7SM -RA OVC030 05/03 A2916 RMK AO2 PK WND 09028/0504 SLP876 6//// T00500028 10056 20050 58034 PNO $
PAWG 110456Z 09016G29KT 4SM -RA BR OVC030 05/03 A2920 RMK PK WND 09030/0440
PAWG 110356Z 09017G22KT 7SM RA OVC030 05/03 A2924 RMK AO2 PK WND 11028/0317 SLP902 T00500028 PNO $